Time;durP1;ratioP1;P1;durP2;ratioP2;P2;SDS_P1;SDS_P2;PMS_P1;PMS_P2;Temp;Humidity;BMP_temperature;BMP_pressure;BME280_temperature;BME280_humidity;BME280_pressure;Samples;Min_cycle;Max_cycle;Signal;HPM_P1;HPM_P2
2023/01/31 00:01:13;;;;;;;28.30;5.50;;;5.80;64.40;;;;;;5030659;28;20469;-71
2023/01/31 00:03:40;;;;;;;30.05;5.93;;;5.80;64.10;;;;;;5031106;28;20386;-71
2023/01/31 00:06:13;;;;;;;24.83;5.97;;;5.80;63.70;;;;;;5031202;28;20391;-71
2023/01/31 00:08:39;;;;;;;27.85;5.75;;;5.80;63.90;;;;;;5031096;28;20390;-71
2023/01/31 00:11:05;;;;;;;26.97;5.70;;;5.90;64.00;;;;;;5031301;28;20387;-71
2023/01/31 00:13:30;;;;;;;34.80;5.93;;;5.80;63.80;;;;;;5031560;28;20387;-72
2023/01/31 00:15:56;;;;;;;25.17;5.53;;;5.80;64.40;;;;;;5032221;28;20387;-72
2023/01/31 00:18:22;;;;;;;38.13;6.45;;;5.80;64.40;;;;;;5031851;28;20387;-71
2023/01/31 00:20:48;;;;;;;25.17;6.50;;;5.90;63.80;;;;;;5032286;28;20410;-72
2023/01/31 00:23:13;;;;;;;31.70;6.25;;;5.90;63.90;;;;;;5031380;28;20442;-71
2023/01/31 00:25:39;;;;;;;21.70;5.57;;;5.90;63.50;;;;;;5034234;28;20729;-72
2023/01/31 00:28:05;;;;;;;29.02;5.55;;;5.90;63.70;;;;;;5034076;28;20737;-73
2023/01/31 00:30:30;;;;;;;30.50;6.25;;;5.80;65.10;;;;;;5034927;28;20438;-72
2023/01/31 00:32:56;;;;;;;33.75;6.72;;;5.70;65.50;;;;;;5037029;28;20395;-72
2023/01/31 00:35:21;;;;;;;34.33;5.93;;;5.80;64.40;;;;;;5036157;28;20391;-73
2023/01/31 00:37:47;;;;;;;22.77;5.60;;;5.70;66.00;;;;;;5034727;28;20390;-72
2023/01/31 00:40:12;;;;;;;29.20;6.10;;;5.70;65.90;;;;;;5030645;28;20506;-72
2023/01/31 00:42:38;;;;;;;29.20;5.77;;;5.70;65.70;;;;;;5030453;28;20391;-70
2023/01/31 00:45:04;;;;;;;32.23;6.27;;;5.60;65.80;;;;;;5030727;28;20411;-70
2023/01/31 00:47:30;;;;;;;44.45;7.60;;;5.50;66.00;;;;;;5030508;28;20383;-72
2023/01/31 00:49:55;;;;;;;30.10;6.27;;;5.50;67.10;;;;;;5030664;28;20441;-72
2023/01/31 00:52:21;;;;;;;28.23;6.40;;;5.40;68.00;;;;;;5037024;28;20478;-72
2023/01/31 00:54:46;;;;;;;30.23;6.10;;;5.20;70.00;;;;;;5035077;28;20470;-72
2023/01/31 00:57:12;;;;;;;33.40;6.87;;;5.10;71.60;;;;;;5031064;28;20375;-72
2023/01/31 00:59:37;;;;;;;27.50;5.73;;;5.20;69.70;;;;;;5030749;28;20432;-72
2023/01/31 01:02:03;;;;;;;34.10;7.00;;;5.10;70.90;;;;;;5030124;28;20410;-73
2023/01/31 01:04:28;;;;;;;29.93;6.03;;;5.20;70.70;;;;;;5030699;28;20383;-71
2023/01/31 01:06:54;;;;;;;33.10;6.00;;;5.20;70.10;;;;;;5030416;28;20388;-72
2023/01/31 01:09:21;;;;;;;29.20;6.00;;;5.30;69.40;;;;;;5030612;28;20411;-72
2023/01/31 01:11:47;;;;;;;35.03;6.05;;;5.30;69.20;;;;;;5030807;28;20387;-71
2023/01/31 01:14:13;;;;;;;29.55;6.15;;;5.30;69.50;;;;;;5030340;28;20398;-71
2023/01/31 01:16:39;;;;;;;35.75;6.55;;;5.30;68.70;;;;;;5030305;28;20600;-71
2023/01/31 01:19:18;;;;;;;27.98;6.35;;;5.30;68.90;;;;;;5030095;28;20484;-72
2023/01/31 01:21:44;;;;;;;33.08;5.82;;;5.30;68.50;;;;;;5030211;28;20749;-72
2023/01/31 01:24:17;;;;;;;28.80;6.50;;;5.40;66.70;;;;;;5030349;28;20387;-72
2023/01/31 01:26:43;;;;;;;26.98;6.28;;;5.40;65.30;;;;;;5030569;28;20391;-72
2023/01/31 01:29:09;;;;;;;27.83;6.75;;;5.40;66.30;;;;;;5030295;28;20486;-71
2023/01/31 01:31:36;;;;;;;27.67;5.65;;;5.40;66.20;;;;;;5029769;28;20466;-71
2023/01/31 01:34:12;;;;;;;27.00;6.00;;;5.40;65.60;;;;;;5029996;28;20391;-71
2023/01/31 01:36:38;;;;;;;29.23;6.28;;;5.30;66.70;;;;;;5030175;28;20390;-71
2023/01/31 01:39:07;;;;;;;23.98;5.50;;;5.30;66.70;;;;;;5029945;28;20398;-71
2023/01/31 01:41:34;;;;;;;34.60;6.38;;;5.30;65.40;;;;;;5032848;28;20445;-71
2023/01/31 01:44:02;;;;;;;28.55;6.13;;;5.30;66.10;;;;;;5033803;28;20788;-71
2023/01/31 01:46:43;;;;;;;30.42;6.63;;;5.30;66.30;;;;;;5033786;28;20409;-71
2023/01/31 01:49:26;;;;;;;27.55;6.20;;;5.20;66.80;;;;;;5033741;28;20386;-72
2023/01/31 01:51:54;;;;;;;27.92;6.00;;;5.20;67.50;;;;;;5048775;22;20391;-72
2023/01/31 01:54:29;;;;;;;28.17;6.60;;;5.20;66.90;;;;;;5052309;28;20438;-72
2023/01/31 01:56:59;;;;;;;25.75;6.28;;;5.10;68.40;;;;;;5054970;28;20373;-71
2023/01/31 01:59:31;;;;;;;31.80;5.67;;;5.20;68.00;;;;;;5053282;28;20442;-71
2023/01/31 02:01:57;;;;;;;29.48;6.40;;;5.10;67.60;;;;;;5054138;28;20488;-73
2023/01/31 02:04:27;;;;;;;29.87;6.17;;;5.10;67.70;;;;;;5054366;28;20476;-74
2023/01/31 02:06:53;;;;;;;28.60;6.07;;;5.00;69.20;;;;;;5054206;28;20381;-72
2023/01/31 02:09:34;;;;;;;23.57;5.80;;;5.00;69.30;;;;;;5054464;28;20381;-72
2023/01/31 02:12:00;;;;;;;31.15;6.30;;;4.90;70.80;;;;;;5053657;28;20381;-73
2023/01/31 02:14:26;;;;;;;31.80;6.93;;;4.70;73.30;;;;;;5054045;28;20387;-73
2023/01/31 02:16:52;;;;;;;33.60;6.20;;;4.80;73.40;;;;;;5054254;28;20389;-74
2023/01/31 02:19:50;;;;;;;23.20;5.83;;;4.70;74.20;;;;;;5054206;28;20386;-74
2023/01/31 02:22:26;;;;;;;32.33;6.07;;;4.70;75.20;;;;;;5033636;28;20969;-73
2023/01/31 02:25:10;;;;;;;35.40;6.30;;;4.80;74.40;;;;;;5053749;28;20397;-72
2023/01/31 02:27:59;;;;;;;24.80;6.28;;;4.90;72.50;;;;;;5054268;28;20385;-72
2023/01/31 02:30:39;;;;;;;24.40;5.90;;;4.90;71.50;;;;;;5053556;28;20386;-73
2023/01/31 02:33:17;;;;;;;31.13;6.30;;;4.90;70.70;;;;;;5053529;28;20385;-71
2023/01/31 02:36:03;;;;;;;31.58;6.15;;;4.90;70.30;;;;;;5053654;28;20374;-71
2023/01/31 02:38:55;;;;;;;23.92;5.97;;;4.90;69.90;;;;;;5053627;28;20472;-71
2023/01/31 02:41:44;;;;;;;32.05;7.43;;;4.80;71.10;;;;;;5053579;28;20401;-73
2023/01/31 02:47:23;;;;;;;24.60;5.97;;;4.80;70.70;;;;;;5053921;28;20674;-72
2023/01/31 02:49:55;;;;;;;25.48;5.80;;;4.60;73.30;;;;;;5054267;28;20381;-72
2023/01/31 02:52:34;;;;;;;31.40;7.53;;;4.70;72.30;;;;;;5054104;28;20874;-72
2023/01/31 02:58:06;;;;;;;42.08;7.63;;;4.60;74.20;;;;;;5060504;28;20465;-71
2023/01/31 03:00:35;;;;;;;24.85;5.78;;;4.60;73.70;;;;;;5056542;28;20929;-71
2023/01/31 03:03:04;;;;;;;28.60;6.53;;;4.60;74.30;;;;;;5053351;28;20769;-74
2023/01/31 03:05:30;;;;;;;33.13;7.43;;;4.50;75.70;;;;;;5054259;28;20389;-73
2023/01/31 03:07:59;;;;;;;27.83;6.70;;;4.40;78.10;;;;;;5053727;28;20758;-71
2023/01/31 03:10:54;;;;;;;19.73;6.20;;;4.40;78.50;;;;;;5053480;28;20481;-74
2023/01/31 03:13:46;;;;;;;25.87;6.10;;;4.30;78.20;;;;;;5048887;28;20541;-72
2023/01/31 03:19:18;;;;;;;26.95;7.13;;;4.30;79.00;;;;;;5052421;28;20427;-72
2023/01/31 03:21:46;;;;;;;28.20;7.53;;;4.30;77.90;;;;;;5052440;28;20793;-72
2023/01/31 03:24:14;;;;;;;28.73;6.78;;;4.30;78.70;;;;;;5068387;28;20485;-73
2023/01/31 03:26:41;;;;;;;29.30;6.55;;;4.40;78.20;;;;;;5053919;28;20434;-72
2023/01/31 03:29:09;;;;;;;30.63;6.65;;;4.40;77.70;;;;;;5058517;28;20389;-71
2023/01/31 03:31:40;;;;;;;30.48;7.05;;;4.40;77.90;;;;;;5070382;28;20424;-72
2023/01/31 03:34:10;;;;;;;35.30;8.48;;;4.30;79.10;;;;;;5070685;28;20405;-72
2023/01/31 03:36:57;;;;;;;26.60;8.15;;;4.20;80.30;;;;;;5071848;28;20378;-73
2023/01/31 03:39:38;;;;;;;37.08;9.20;;;4.10;81.90;;;;;;5056547;28;20397;-73
2023/01/31 03:42:08;;;;;;;36.92;9.00;;;4.20;82.50;;;;;;5052354;28;20397;-73
2023/01/31 03:44:42;;;;;;;31.42;8.05;;;4.10;83.00;;;;;;5054812;28;20381;-73
2023/01/31 03:47:24;;;;;;;32.78;8.00;;;4.10;83.30;;;;;;5052122;28;20455;-73
2023/01/31 03:49:51;;;;;;;41.27;8.30;;;4.10;84.10;;;;;;5051924;28;20412;-72
2023/01/31 03:52:27;;;;;;;27.60;8.13;;;4.10;85.50;;;;;;5051722;28;20637;-72
2023/01/31 03:54:58;;;;;;;32.15;7.50;;;4.20;84.30;;;;;;5052153;28;20393;-71
2023/01/31 03:57:31;;;;;;;28.98;8.23;;;4.10;84.00;;;;;;5051920;28;20393;-71
2023/01/31 03:59:58;;;;;;;31.88;8.30;;;4.00;84.50;;;;;;5052097;28;20396;-70
2023/01/31 04:02:30;;;;;;;39.72;9.02;;;4.00;87.50;;;;;;5051477;28;20492;-72
2023/01/31 04:05:11;;;;;;;26.60;8.95;;;4.10;87.70;;;;;;5050785;28;20885;-72
2023/01/31 04:07:38;;;;;;;43.35;9.90;;;4.10;88.00;;;;;;5051721;28;20822;-71
2023/01/31 04:10:14;;;;;;;28.08;8.18;;;4.10;89.30;;;;;;5051633;28;20752;-72
2023/01/31 04:12:40;;;;;;;31.10;8.88;;;4.00;88.80;;;;;;5051227;28;20385;-74
2023/01/31 04:15:07;;;;;;;26.75;8.25;;;4.00;90.70;;;;;;5051370;28;20404;-72
2023/01/31 04:17:33;;;;;;;35.00;8.90;;;4.10;90.40;;;;;;5051488;28;20389;-71
2023/01/31 04:19:58;;;;;;;43.95;10.20;;;4.10;92.00;;;;;;5051587;28;20382;-73
2023/01/31 04:22:24;;;;;;;33.03;8.80;;;4.10;91.30;;;;;;5051112;28;20393;-72
2023/01/31 04:24:50;;;;;;;32.97;9.10;;;4.30;90.70;;;;;;5051588;28;20386;-73
2023/01/31 04:27:16;;;;;;;35.33;8.80;;;4.20;89.30;;;;;;5051378;28;20746;-72
2023/01/31 04:29:42;;;;;;;29.55;8.88;;;4.30;90.30;;;;;;5051218;28;20866;-74
2023/01/31 04:32:07;;;;;;;32.13;9.05;;;4.30;90.00;;;;;;5051212;28;21125;-72
2023/01/31 04:34:33;;;;;;;34.47;9.55;;;4.50;88.70;;;;;;5051507;28;20382;-72
2023/01/31 04:36:58;;;;;;;34.50;10.10;;;4.50;88.00;;;;;;5051231;28;20901;-73
2023/01/31 04:39:24;;;;;;;34.43;9.50;;;4.60;87.70;;;;;;5051365;28;20384;-74
2023/01/31 04:41:49;;;;;;;38.50;9.80;;;4.60;86.30;;;;;;5050757;28;20401;-74
2023/01/31 04:44:15;;;;;;;36.97;9.13;;;4.70;85.10;;;;;;5050981;28;20829;-74
2023/01/31 04:46:41;;;;;;;29.77;9.25;;;4.70;84.70;;;;;;5051846;28;20734;-73
2023/01/31 04:49:07;;;;;;;31.98;10.45;;;4.80;84.20;;;;;;5051063;28;20743;-73
2023/01/31 04:51:32;;;;;;;26.17;9.23;;;4.80;82.70;;;;;;5051284;28;20393;-73
2023/01/31 04:53:58;;;;;;;38.23;10.20;;;4.80;82.60;;;;;;5051683;28;20389;-74
2023/01/31 04:56:24;;;;;;;40.30;10.60;;;4.80;82.80;;;;;;5052464;28;20389;-76
2023/01/31 04:58:49;;;;;;;36.47;10.27;;;4.90;82.30;;;;;;5051647;28;20417;-74
2023/01/31 05:01:15;;;;;;;33.70;9.95;;;4.80;81.80;;;;;;5050952;28;20403;-74
2023/01/31 05:03:40;;;;;;;36.50;10.30;;;4.90;82.00;;;;;;5050967;28;20472;-74
2023/01/31 05:06:07;;;;;;;32.37;9.87;;;4.90;81.40;;;;;;5050087;28;20472;-75
2023/01/31 05:08:32;;;;;;;37.53;11.18;;;5.00;80.30;;;;;;5050843;28;20392;-75
2023/01/31 05:11:00;;;;;;;34.73;11.17;;;4.90;81.50;;;;;;5050713;28;20385;-74
2023/01/31 05:13:26;;;;;;;43.95;12.20;;;5.00;80.70;;;;;;5050762;28;20449;-73
2023/01/31 05:15:53;;;;;;;37.20;11.10;;;5.00;80.50;;;;;;5052979;28;20897;-74
2023/01/31 05:18:18;;;;;;;41.60;12.38;;;5.00;80.70;;;;;;5054799;28;20476;-74
2023/01/31 05:20:44;;;;;;;40.83;12.40;;;5.00;79.80;;;;;;5055105;28;20575;-73
2023/01/31 05:23:10;;;;;;;35.37;12.20;;;5.10;79.80;;;;;;5056794;28;20489;-72
2023/01/31 05:25:36;;;;;;;35.88;12.20;;;5.20;78.30;;;;;;5055655;28;20785;-72
2023/01/31 05:28:03;;;;;;;37.83;11.70;;;5.20;78.00;;;;;;5060111;28;20385;-72
2023/01/31 05:30:28;;;;;;;39.28;12.18;;;5.20;78.60;;;;;;5063431;28;20385;-74
2023/01/31 05:32:54;;;;;;;35.73;12.20;;;5.30;77.40;;;;;;5054184;28;20500;-73
2023/01/31 05:35:19;;;;;;;37.20;12.70;;;5.10;78.60;;;;;;5054537;28;20408;-72
2023/01/31 05:37:45;;;;;;;47.23;11.90;;;5.20;78.50;;;;;;5054691;28;20718;-73
2023/01/31 05:40:13;;;;;;;45.53;12.03;;;5.20;77.90;;;;;;5054377;28;20749;-73
2023/01/31 05:42:39;;;;;;;42.35;13.70;;;5.20;76.80;;;;;;5052882;28;20468;-72
2023/01/31 05:45:05;;;;;;;42.63;13.30;;;5.20;78.40;;;;;;5054379;28;20464;-75
2023/01/31 05:47:31;;;;;;;40.43;13.67;;;5.20;77.40;;;;;;5054680;28;20532;-73
2023/01/31 05:49:56;;;;;;;36.90;12.50;;;5.20;77.70;;;;;;5054998;28;20877;-72
2023/01/31 05:52:22;;;;;;;48.53;13.82;;;5.20;78.00;;;;;;5054763;28;20439;-74
2023/01/31 05:54:48;;;;;;;42.40;13.60;;;5.10;78.90;;;;;;5054783;28;20392;-74
2023/01/31 05:57:14;;;;;;;45.80;13.20;;;5.10;80.00;;;;;;5056025;28;20450;-74
2023/01/31 05:59:40;;;;;;;45.38;14.57;;;5.20;77.60;;;;;;5054533;28;20385;-73
2023/01/31 06:02:07;;;;;;;42.53;15.13;;;5.20;77.10;;;;;;5053655;28;20959;-74
2023/01/31 06:04:33;;;;;;;44.42;16.23;;;5.20;78.20;;;;;;5054286;28;20409;-73
2023/01/31 06:06:59;;;;;;;54.28;16.00;;;5.20;78.50;;;;;;5054084;28;20378;-74
2023/01/31 06:09:24;;;;;;;43.60;16.27;;;5.20;78.40;;;;;;5053824;28;20393;-72
2023/01/31 06:11:50;;;;;;;47.37;15.93;;;5.20;79.30;;;;;;5052375;28;20393;-72
2023/01/31 06:14:15;;;;;;;43.15;15.10;;;5.20;78.90;;;;;;5054140;28;20754;-73
2023/01/31 06:16:41;;;;;;;39.53;14.15;;;5.30;77.00;;;;;;5054040;28;20527;-73
2023/01/31 06:19:06;;;;;;;38.78;13.70;;;5.40;76.10;;;;;;5053834;28;20389;-72
2023/01/31 06:21:32;;;;;;;44.22;13.27;;;5.40;75.50;;;;;;5053997;28;20991;-72
2023/01/31 06:23:58;;;;;;;36.93;13.37;;;5.40;75.30;;;;;;5054342;28;20385;-76
2023/01/31 06:26:23;;;;;;;45.67;13.17;;;5.40;74.70;;;;;;5053863;28;20424;-74
2023/01/31 06:28:49;;;;;;;40.23;13.90;;;5.40;73.60;;;;;;5052240;28;20389;-73
2023/01/31 06:31:14;;;;;;;45.27;13.47;;;5.40;74.30;;;;;;5054061;28;20451;-73
2023/01/31 06:33:40;;;;;;;41.33;13.23;;;5.40;73.80;;;;;;5053540;28;20384;-74
2023/01/31 06:36:06;;;;;;;38.75;12.95;;;5.40;74.10;;;;;;5053881;28;20423;-74
2023/01/31 06:38:32;;;;;;;36.28;12.80;;;5.50;74.10;;;;;;5053416;28;20818;-75
2023/01/31 06:40:58;;;;;;;40.77;12.30;;;5.40;74.00;;;;;;5053146;28;20428;-72
2023/01/31 06:43:23;;;;;;;34.33;11.60;;;5.40;73.00;;;;;;5052122;28;20408;-72
2023/01/31 06:45:49;;;;;;;43.05;13.00;;;5.50;73.50;;;;;;5053240;28;20405;-75
2023/01/31 06:48:15;;;;;;;39.80;12.43;;;5.50;72.50;;;;;;5052871;28;20752;-73
2023/01/31 06:50:41;;;;;;;40.60;12.63;;;5.60;71.20;;;;;;5053596;28;20389;-73
2023/01/31 06:53:07;;;;;;;41.78;12.55;;;5.70;70.10;;;;;;5053380;28;20402;-75
2023/01/31 06:55:32;;;;;;;38.37;13.10;;;5.70;69.60;;;;;;5053382;28;20484;-75
2023/01/31 06:57:58;;;;;;;39.42;12.60;;;5.70;68.70;;;;;;5053068;28;20468;-74
2023/01/31 07:00:24;;;;;;;48.40;14.18;;;5.70;68.90;;;;;;5052858;28;20409;-72
2023/01/31 07:02:51;;;;;;;35.15;11.70;;;5.60;69.50;;;;;;5052577;28;20386;-74
2023/01/31 07:05:17;;;;;;;36.27;11.17;;;5.70;68.40;;;;;;5052932;28;20388;-74
2023/01/31 07:07:43;;;;;;;31.17;10.38;;;5.70;68.10;;;;;;5052887;28;20433;-75
2023/01/31 07:10:09;;;;;;;35.20;10.95;;;5.80;66.60;;;;;;5052918;28;20672;-75
2023/01/31 07:12:35;;;;;;;45.30;11.60;;;5.70;65.90;;;;;;5053531;28;20485;-75
2023/01/31 07:15:01;;;;;;;34.50;11.52;;;5.70;66.70;;;;;;5053137;28;20770;-73
2023/01/31 07:17:26;;;;;;;39.35;9.93;;;5.70;67.10;;;;;;5053373;28;20381;-73
2023/01/31 07:19:52;;;;;;;37.47;10.40;;;5.70;66.40;;;;;;5053240;28;20381;-74
2023/01/31 07:22:18;;;;;;;35.17;9.80;;;5.60;67.30;;;;;;5052572;28;20409;-74
2023/01/31 07:24:44;;;;;;;32.15;10.27;;;5.60;67.50;;;;;;5052508;28;20386;-74
2023/01/31 07:27:12;;;;;;;32.63;9.60;;;5.70;67.00;;;;;;5049448;28;20459;-75
2023/01/31 07:29:38;;;;;;;30.52;9.90;;;5.70;66.40;;;;;;5052329;28;20389;-75
2023/01/31 07:32:04;;;;;;;29.57;8.47;;;5.60;66.90;;;;;;5051796;28;20393;-74
2023/01/31 07:34:29;;;;;;;44.78;10.00;;;5.70;66.90;;;;;;5052528;28;20801;-75
2023/01/31 07:36:55;;;;;;;33.23;9.50;;;5.60;67.70;;;;;;5052696;28;20531;-76
2023/01/31 07:39:21;;;;;;;33.50;9.47;;;5.60;68.30;;;;;;5054217;28;20447;-73
2023/01/31 07:41:46;;;;;;;30.30;9.03;;;5.70;66.60;;;;;;5054222;28;20428;-74
2023/01/31 07:44:12;;;;;;;28.27;8.13;;;5.80;66.30;;;;;;5053937;28;20408;-76
2023/01/31 07:46:40;;;;;;;26.30;8.02;;;6.00;63.20;;;;;;5051431;28;22700;-74
2023/01/31 07:49:06;;;;;;;33.35;8.88;;;6.00;63.40;;;;;;5051032;28;20450;-74
2023/01/31 07:51:31;;;;;;;27.83;8.53;;;6.10;63.30;;;;;;5051238;28;20393;-74
2023/01/31 07:53:57;;;;;;;32.00;8.07;;;6.10;62.70;;;;;;5052675;28;20405;-76
2023/01/31 07:56:22;;;;;;;24.70;7.53;;;6.10;61.70;;;;;;5058628;28;20413;-73
2023/01/31 07:58:49;;;;;;;21.90;7.80;;;6.10;62.80;;;;;;5069751;28;20393;-74
2023/01/31 08:04:09;;;;;;;24.63;7.68;;;6.20;60.40;;;;;;5039138;28;20859;-75
2023/01/31 08:06:35;;;;;;;25.83;7.60;;;6.40;59.00;;;;;;5052225;28;20739;-74
2023/01/31 08:09:01;;;;;;;27.55;6.95;;;6.30;59.20;;;;;;5053060;28;20385;-76
2023/01/31 08:11:27;;;;;;;26.20;7.28;;;6.40;58.20;;;;;;5052370;28;20393;-73
2023/01/31 08:13:53;;;;;;;29.77;7.00;;;6.40;58.40;;;;;;5052249;28;20849;-75
2023/01/31 08:16:19;;;;;;;28.17;7.67;;;6.40;57.50;;;;;;5052521;28;20388;-75
2023/01/31 08:18:46;;;;;;;32.63;7.63;;;6.40;57.50;;;;;;5053184;28;20423;-74
2023/01/31 08:21:12;;;;;;;42.50;7.97;;;6.40;58.10;;;;;;5052684;28;20407;-75
2023/01/31 08:23:39;;;;;;;20.40;6.35;;;6.40;58.90;;;;;;5054270;28;20807;-74
2023/01/31 08:26:12;;;;;;;27.33;7.40;;;6.40;58.00;;;;;;5057099;28;20758;-73
2023/01/31 08:28:39;;;;;;;25.05;6.93;;;6.40;57.40;;;;;;5057656;28;20746;-76
2023/01/31 08:31:05;;;;;;;23.83;6.07;;;6.50;56.30;;;;;;5060493;28;20397;-76
2023/01/31 08:33:31;;;;;;;26.33;6.43;;;6.60;55.60;;;;;;5061059;28;20393;-74
2023/01/31 08:35:57;;;;;;;23.10;6.85;;;6.60;55.80;;;;;;5058817;28;20400;-76
2023/01/31 08:38:22;;;;;;;25.13;7.32;;;6.50;57.10;;;;;;5053660;28;20746;-75
2023/01/31 08:40:49;;;;;;;28.13;6.80;;;6.40;57.80;;;;;;5056218;28;20429;-72
2023/01/31 08:43:14;;;;;;;27.10;6.68;;;6.50;58.00;;;;;;5056070;28;20393;-73
2023/01/31 08:45:40;;;;;;;28.63;7.10;;;6.50;57.00;;;;;;5053157;28;20380;-76
2023/01/31 08:48:06;;;;;;;30.23;7.10;;;6.60;57.30;;;;;;5056447;28;20385;-76
2023/01/31 08:50:32;;;;;;;36.80;7.30;;;6.70;56.10;;;;;;5056095;28;20925;-74
2023/01/31 08:53:03;;;;;;;23.80;6.10;;;6.70;54.20;;;;;;5052242;28;20405;-74
2023/01/31 08:55:30;;;;;;;30.10;6.75;;;6.70;55.60;;;;;;5052507;28;20401;-73
2023/01/31 08:57:56;;;;;;;28.95;5.90;;;6.60;57.90;;;;;;5051191;28;20755;-74
2023/01/31 09:00:22;;;;;;;22.52;7.28;;;6.60;60.20;;;;;;5051964;28;20385;-74
2023/01/31 09:02:53;;;;;;;24.00;6.55;;;6.60;62.50;;;;;;5051885;28;20381;-74
2023/01/31 09:05:18;;;;;;;24.77;5.63;;;6.60;60.80;;;;;;5051673;28;20418;-75
2023/01/31 09:07:44;;;;;;;22.23;5.80;;;6.70;60.80;;;;;;5052274;28;20381;-73
2023/01/31 09:10:10;;;;;;;25.53;6.27;;;6.80;60.10;;;;;;5052790;28;20450;-74
2023/01/31 09:12:35;;;;;;;25.33;6.00;;;6.80;62.50;;;;;;5052107;28;20870;-75
2023/01/31 09:15:02;;;;;;;26.17;6.55;;;6.80;63.70;;;;;;5051744;28;20388;-73
2023/01/31 09:17:29;;;;;;;27.77;7.90;;;6.80;64.10;;;;;;5051871;28;20716;-76
2023/01/31 09:19:55;;;;;;;25.90;7.90;;;6.90;63.30;;;;;;5048555;28;20393;-74
2023/01/31 09:22:21;;;;;;;33.03;8.43;;;6.90;63.00;;;;;;5037997;28;20514;-74
2023/01/31 09:24:47;;;;;;;24.08;8.10;;;7.00;62.00;;;;;;5049260;28;20401;-75
2023/01/31 09:27:12;;;;;;;25.85;7.20;;;7.10;62.50;;;;;;5039372;28;20390;-73
2023/01/31 09:29:38;;;;;;;20.95;6.40;;;7.10;61.40;;;;;;5044154;28;20416;-75
2023/01/31 09:32:04;;;;;;;24.67;6.83;;;7.10;61.00;;;;;;5049878;28;20421;-74
2023/01/31 09:34:30;;;;;;;25.00;6.23;;;7.10;58.40;;;;;;5050208;28;20484;-74
2023/01/31 09:36:56;;;;;;;25.38;6.55;;;7.00;60.10;;;;;;5050109;28;20860;-73
2023/01/31 09:39:22;;;;;;;24.08;6.90;;;7.00;60.50;;;;;;5047611;28;20468;-75
2023/01/31 09:42:07;;;;;;;25.65;6.95;;;6.90;61.40;;;;;;5049420;28;20528;-75
2023/01/31 09:44:42;;;;;;;23.57;7.13;;;7.00;62.50;;;;;;5048062;28;20797;-76
2023/01/31 09:47:19;;;;;;;22.60;6.40;;;7.10;61.20;;;;;;5047302;28;20424;-76
2023/01/31 09:50:13;;;;;;;23.60;7.05;;;7.20;59.30;;;;;;5049782;28;20389;-74
2023/01/31 09:52:39;;;;;;;28.77;7.10;;;7.30;60.00;;;;;;5037385;28;20397;-74
2023/01/31 09:55:07;;;;;;;25.27;7.10;;;7.30;57.30;;;;;;5046741;28;20887;-75
2023/01/31 09:57:44;;;;;;;25.23;6.45;;;7.40;57.80;;;;;;5035283;28;20403;-75
2023/01/31 10:00:28;;;;;;;20.77;6.40;;;7.40;57.30;;;;;;5036983;28;20424;-78
2023/01/31 10:03:17;;;;;;;25.23;6.22;;;7.50;57.40;;;;;;5062293;28;20401;-77
2023/01/31 10:06:01;;;;;;;19.20;6.65;;;7.60;56.60;;;;;;5064066;28;20383;-77
2023/01/31 10:08:50;;;;;;;19.45;5.75;;;7.70;56.50;;;;;;5069832;28;20441;-77
2023/01/31 10:11:45;;;;;;;20.77;6.10;;;7.80;54.60;;;;;;5057762;28;20442;-75
2023/01/31 10:14:20;;;;;;;25.08;6.10;;;7.90;56.10;;;;;;5050216;28;20438;-75
2023/01/31 10:17:23;;;;;;;22.08;5.45;;;7.80;59.00;;;;;;5059401;28;20804;-76
2023/01/31 10:19:58;;;;;;;22.15;6.47;;;7.70;60.30;;;;;;5041026;28;20396;-74
2023/01/31 10:22:46;;;;;;;20.70;6.40;;;7.50;64.80;;;;;;5053989;28;20567;-75
2023/01/31 10:25:33;;;;;;;29.05;6.55;;;7.50;66.90;;;;;;5055189;28;20370;-75
2023/01/31 10:28:16;;;;;;;21.95;6.72;;;7.50;65.50;;;;;;5062911;28;20381;-72
2023/01/31 10:31:15;;;;;;;32.00;7.20;;;7.40;66.60;;;;;;5066092;28;20396;-73
2023/01/31 10:33:54;;;;;;;29.10;7.90;;;7.50;65.30;;;;;;5073822;28;20472;-74
2023/01/31 10:36:37;;;;;;;24.63;7.83;;;7.70;65.10;;;;;;5054898;28;20380;-72
2023/01/31 10:39:22;;;;;;;25.30;8.00;;;7.80;61.90;;;;;;5054666;28;20503;-76
2023/01/31 10:41:53;;;;;;;30.70;8.05;;;7.80;60.00;;;;;;5054316;28;20466;-74
2023/01/31 10:44:24;;;;;;;23.97;7.57;;;7.80;60.70;;;;;;5053081;28;20425;-75
2023/01/31 10:46:55;;;;;;;28.02;7.60;;;7.80;61.20;;;;;;5054132;28;20435;-74
2023/01/31 10:49:23;;;;;;;24.70;8.25;;;7.90;60.90;;;;;;5053977;28;20415;-76
2023/01/31 10:52:32;;;;;;;24.27;9.00;;;8.10;59.00;;;;;;5053823;28;20392;-76
2023/01/31 10:55:02;;;;;;;29.60;8.85;;;8.00;61.40;;;;;;5016808;28;20444;-73
2023/01/31 10:57:28;;;;;;;22.35;6.65;;;8.10;60.60;;;;;;5065415;28;20404;-75
2023/01/31 10:59:54;;;;;;;26.73;7.40;;;8.20;59.60;;;;;;5059248;28;20384;-75
2023/01/31 11:02:23;;;;;;;21.93;7.23;;;8.30;59.20;;;;;;5054033;28;20436;-74
2023/01/31 11:04:51;;;;;;;31.55;7.88;;;8.30;58.40;;;;;;5054552;28;20919;-75
2023/01/31 11:07:17;;;;;;;21.63;8.00;;;8.40;58.80;;;;;;5054838;28;20396;-73
2023/01/31 11:09:52;;;;;;;22.10;7.13;;;8.40;56.90;;;;;;5055059;28;20396;-73
2023/01/31 11:12:19;;;;;;;20.50;8.05;;;8.40;57.60;;;;;;5053656;28;20386;-73
2023/01/31 11:14:44;;;;;;;29.88;8.43;;;8.40;57.20;;;;;;5053361;28;20389;-73
2023/01/31 11:17:23;;;;;;;30.40;8.97;;;8.30;57.50;;;;;;5053282;28;20388;-74
2023/01/31 11:19:51;;;;;;;33.53;8.55;;;8.10;59.60;;;;;;5053645;28;20388;-74
2023/01/31 11:22:27;;;;;;;25.45;8.90;;;7.90;63.40;;;;;;5052381;28;20414;-75
2023/01/31 11:24:55;;;;;;;23.80;8.97;;;7.90;63.30;;;;;;5052569;28;20397;-75
2023/01/31 11:27:29;;;;;;;22.38;8.20;;;7.80;63.00;;;;;;5052730;28;20885;-74
2023/01/31 11:29:57;;;;;;;20.42;7.30;;;7.80;63.60;;;;;;5053568;28;20460;-75
2023/01/31 11:32:29;;;;;;;24.60;8.60;;;7.70;63.90;;;;;;5053951;28;20432;-74
2023/01/31 11:35:04;;;;;;;22.88;7.97;;;7.60;65.70;;;;;;5054101;28;20421;-75
2023/01/31 11:37:32;;;;;;;34.55;8.30;;;7.70;65.30;;;;;;5053614;28;20389;-75
2023/01/31 11:40:18;;;;;;;25.20;7.72;;;7.60;65.50;;;;;;5053542;28;20495;-74
2023/01/31 11:42:55;;;;;;;27.70;8.57;;;7.60;66.50;;;;;;5054163;28;20509;-75
2023/01/31 11:45:27;;;;;;;21.60;7.93;;;7.70;66.80;;;;;;5052716;28;20476;-73
2023/01/31 11:48:08;;;;;;;24.75;7.30;;;7.70;66.60;;;;;;5053195;28;20472;-75
2023/01/31 11:50:37;;;;;;;25.48;7.65;;;7.80;66.50;;;;;;5052920;28;20377;-76
2023/01/31 11:53:16;;;;;;;24.27;7.40;;;7.80;65.80;;;;;;5052318;28;20492;-75
2023/01/31 11:55:43;;;;;;;26.08;7.55;;;7.90;65.40;;;;;;5052349;28;20393;-72
2023/01/31 11:58:18;;;;;;;20.80;7.60;;;7.90;65.50;;;;;;5052704;28;20431;-76
2023/01/31 12:01:00;;;;;;;23.07;7.80;;;7.90;64.40;;;;;;5053166;28;20758;-76
2023/01/31 12:03:26;;;;;;;27.00;7.38;;;8.10;63.90;;;;;;5052276;28;20377;-73
2023/01/31 12:06:07;;;;;;;20.48;7.50;;;8.20;63.60;;;;;;5053557;28;20386;-73
2023/01/31 12:08:37;;;;;;;16.63;7.03;;;8.20;61.90;;;;;;5052012;28;20386;-74
2023/01/31 12:11:18;;;;;;;22.55;6.95;;;8.20;63.40;;;;;;5053682;28;20453;-73
2023/01/31 12:13:51;;;;;;;22.75;7.30;;;8.30;62.40;;;;;;5052513;28;20471;-73
2023/01/31 12:16:21;;;;;;;21.30;6.90;;;8.10;63.90;;;;;;5050924;28;20389;-73
2023/01/31 12:19:11;;;;;;;20.13;6.95;;;8.00;64.70;;;;;;5051850;28;20408;-74
2023/01/31 12:21:57;;;;;;;24.20;8.07;;;8.00;65.70;;;;;;5051554;28;20579;-73
2023/01/31 12:24:32;;;;;;;19.37;7.07;;;8.10;65.70;;;;;;5051575;28;20435;-73
2023/01/31 12:27:04;;;;;;;19.90;6.93;;;8.00;67.20;;;;;;5050428;28;20473;-74
2023/01/31 12:30:09;;;;;;;22.60;7.60;;;8.00;67.60;;;;;;5051961;28;20448;-74
2023/01/31 12:32:44;;;;;;;23.58;7.95;;;8.10;67.10;;;;;;5054204;28;20408;-75
2023/01/31 12:35:20;;;;;;;27.42;7.10;;;8.00;67.10;;;;;;5055050;28;20421;-75
2023/01/31 12:38:14;;;;;;;19.88;6.82;;;7.90;68.80;;;;;;5053273;28;20393;-74
2023/01/31 12:40:48;;;;;;;27.17;8.30;;;7.90;69.20;;;;;;5021072;28;20980;-76
2023/01/31 12:43:41;;;;;;;27.23;8.00;;;7.80;70.40;;;;;;5051792;28;20393;-75
2023/01/31 12:46:16;;;;;;;29.90;8.45;;;7.80;71.40;;;;;;5052494;28;20373;-74
2023/01/31 12:49:25;;;;;;;23.23;8.27;;;7.90;70.80;;;;;;5053090;28;20400;-76
2023/01/31 12:52:14;;;;;;;17.60;7.75;;;7.80;71.70;;;;;;5050612;28;20397;-75
2023/01/31 12:54:49;;;;;;;23.63;9.05;;;7.90;71.80;;;;;;5051604;28;20393;-76
2023/01/31 12:57:38;;;;;;;22.63;9.07;;;7.90;72.20;;;;;;5051981;28;20875;-75
2023/01/31 13:00:30;;;;;;;23.77;8.07;;;7.90;70.80;;;;;;5053007;28;20441;-74
2023/01/31 13:03:13;;;;;;;21.00;8.73;;;7.90;71.20;;;;;;5063721;28;20406;-72
2023/01/31 13:05:47;;;;;;;24.90;9.43;;;8.00;70.60;;;;;;5059280;28;20476;-74
2023/01/31 13:08:27;;;;;;;28.95;9.43;;;7.90;70.60;;;;;;5052035;28;20598;-75
2023/01/31 13:11:07;;;;;;;37.17;10.27;;;7.90;70.50;;;;;;5052558;28;20378;-76
2023/01/31 13:13:41;;;;;;;28.70;10.18;;;7.90;70.40;;;;;;5050266;28;20404;-75
2023/01/31 13:16:20;;;;;;;30.30;11.07;;;8.00;71.20;;;;;;5051002;28;20471;-74